sensor_id;sensor_type;location;lat;lon;timestamp;pressure;altitude;pressure_sealevel;temperature;humidity
69911;BME280;63555;49.920;17.868;2023-03-14T00:01:37;97081.69;;;8.44;59.35
69911;BME280;63555;49.920;17.868;2023-03-14T00:06:37;97095.75;;;8.53;59.36
69911;BME280;63555;49.920;17.868;2023-03-14T00:11:38;97106.22;;;8.62;59.23
69911;BME280;63555;49.920;17.868;2023-03-14T00:16:38;97083.94;;;8.67;58.98
69911;BME280;63555;49.920;17.868;2023-03-14T00:21:39;97053.28;;;8.67;59.37
69911;BME280;63555;49.920;17.868;2023-03-14T00:26:39;97066.66;;;8.74;59.22
69911;BME280;63555;49.920;17.868;2023-03-14T00:31:39;97042.84;;;8.75;58.86
69911;BME280;63555;49.920;17.868;2023-03-14T00:36:40;97037.53;;;8.57;59.65
69911;BME280;63555;49.920;17.868;2023-03-14T00:41:41;97028.13;;;8.55;59.48
69911;BME280;63555;49.920;17.868;2023-03-14T00:46:41;97009.34;;;8.50;59.64
69911;BME280;63555;49.920;17.868;2023-03-14T00:51:41;96985.72;;;8.50;59.88
69911;BME280;63555;49.920;17.868;2023-03-14T00:56:42;96971.56;;;8.60;59.59
69911;BME280;63555;49.920;17.868;2023-03-14T01:01:42;96954.78;;;8.71;59.62
69911;BME280;63555;49.920;17.868;2023-03-14T01:06:43;96964.47;;;8.88;59.21
69911;BME280;63555;49.920;17.868;2023-03-14T01:11:43;96971.09;;;8.92;59.08
69911;BME280;63555;49.920;17.868;2023-03-14T01:16:46;96979.44;;;9.06;58.86
69911;BME280;63555;49.920;17.868;2023-03-14T01:21:46;96967.03;;;9.16;58.78
69911;BME280;63555;49.920;17.868;2023-03-14T01:26:47;96979.19;;;8.99;58.88
69911;BME280;63555;49.920;17.868;2023-03-14T01:31:47;96986.53;;;8.78;59.21
69911;BME280;63555;49.920;17.868;2023-03-14T01:36:47;96979.19;;;8.54;59.95
69911;BME280;63555;49.920;17.868;2023-03-14T01:41:48;96958.91;;;8.46;59.82
69911;BME280;63555;49.920;17.868;2023-03-14T01:46:48;96955.47;;;8.46;59.95
69911;BME280;63555;49.920;17.868;2023-03-14T01:56:57;96962.72;;;8.24;59.91
69911;BME280;63555;49.920;17.868;2023-03-14T02:02:02;96980.19;;;8.16;60.19
69911;BME280;63555;49.920;17.868;2023-03-14T02:07:12;96985.56;;;8.14;60.30
69911;BME280;63555;49.920;17.868;2023-03-14T02:12:15;96973.97;;;8.17;60.73
69911;BME280;63555;49.920;17.868;2023-03-14T02:17:17;96973.44;;;8.13;60.25
69911;BME280;63555;49.920;17.868;2023-03-14T02:22:18;96977.88;;;8.03;60.91
69911;BME280;63555;49.920;17.868;2023-03-14T02:27:20;96962.50;;;7.81;61.17
69911;BME280;63555;49.920;17.868;2023-03-14T02:32:21;96950.25;;;7.52;61.11
69911;BME280;63555;49.920;17.868;2023-03-14T02:37:26;96938.84;;;7.34;61.13
69911;BME280;63555;49.920;17.868;2023-03-14T02:42:28;96966.31;;;7.20;62.50
69911;BME280;63555;49.920;17.868;2023-03-14T02:47:30;96953.47;;;7.27;62.42
69911;BME280;63555;49.920;17.868;2023-03-14T02:52:30;96951.09;;;7.43;61.47
69911;BME280;63555;49.920;17.868;2023-03-14T02:57:31;96991.09;;;7.55;61.33
69911;BME280;63555;49.920;17.868;2023-03-14T03:02:31;97002.00;;;7.60;61.38
69911;BME280;63555;49.920;17.868;2023-03-14T03:07:32;97017.06;;;7.58;61.74
69911;BME280;63555;49.920;17.868;2023-03-14T03:12:32;97008.09;;;7.51;62.23
69911;BME280;63555;49.920;17.868;2023-03-14T03:17:32;96987.41;;;7.48;62.35
69911;BME280;63555;49.920;17.868;2023-03-14T03:22:33;96978.50;;;7.68;62.26
69911;BME280;63555;49.920;17.868;2023-03-14T03:27:35;96959.13;;;7.98;61.88
69911;BME280;63555;49.920;17.868;2023-03-14T03:32:35;96940.16;;;8.31;61.14
69911;BME280;63555;49.920;17.868;2023-03-14T03:37:36;96934.16;;;8.49;60.24
69911;BME280;63555;49.920;17.868;2023-03-14T03:42:36;96913.06;;;8.58;60.51
69911;BME280;63555;49.920;17.868;2023-03-14T03:47:37;96896.13;;;8.71;60.28
69911;BME280;63555;49.920;17.868;2023-03-14T03:52:37;96895.38;;;8.78;60.03
69911;BME280;63555;49.920;17.868;2023-03-14T03:57:38;96884.69;;;8.62;60.04
69911;BME280;63555;49.920;17.868;2023-03-14T04:02:38;96885.06;;;8.49;60.80
69911;BME280;63555;49.920;17.868;2023-03-14T04:07:38;96883.03;;;8.43;60.63
69911;BME280;63555;49.920;17.868;2023-03-14T04:12:39;96877.41;;;8.38;60.69
69911;BME280;63555;49.920;17.868;2023-03-14T04:17:39;96867.34;;;8.34;61.25
69911;BME280;63555;49.920;17.868;2023-03-14T04:22:40;96885.59;;;8.35;60.55
69911;BME280;63555;49.920;17.868;2023-03-14T04:27:40;96908.41;;;8.25;61.19
69911;BME280;63555;49.920;17.868;2023-03-14T04:32:41;96909.06;;;8.09;61.28
69911;BME280;63555;49.920;17.868;2023-03-14T04:37:41;96883.53;;;8.02;61.47
69911;BME280;63555;49.920;17.868;2023-03-14T04:42:43;96884.50;;;8.01;61.28
69911;BME280;63555;49.920;17.868;2023-03-14T04:47:44;96880.22;;;7.99;61.48
69911;BME280;63555;49.920;17.868;2023-03-14T04:52:44;96896.66;;;8.02;61.27
69911;BME280;63555;49.920;17.868;2023-03-14T04:57:44;96888.41;;;7.96;61.74
69911;BME280;63555;49.920;17.868;2023-03-14T05:02:45;96890.78;;;7.90;61.49
69911;BME280;63555;49.920;17.868;2023-03-14T05:07:45;96876.28;;;7.86;62.00
69911;BME280;63555;49.920;17.868;2023-03-14T05:12:46;96869.94;;;7.79;61.72
69911;BME280;63555;49.920;17.868;2023-03-14T05:17:46;96846.09;;;7.72;62.27
69911;BME280;63555;49.920;17.868;2023-03-14T05:22:47;96836.47;;;7.63;62.13
69911;BME280;63555;49.920;17.868;2023-03-14T05:27:47;96839.81;;;7.55;62.39
69911;BME280;63555;49.920;17.868;2023-03-14T05:32:47;96835.81;;;7.51;62.32
69911;BME280;63555;49.920;17.868;2023-03-14T05:37:48;96847.44;;;7.49;62.43
69911;BME280;63555;49.920;17.868;2023-03-14T05:42:48;96837.34;;;7.54;62.57
69911;BME280;63555;49.920;17.868;2023-03-14T05:47:49;96830.09;;;7.65;62.66
69911;BME280;63555;49.920;17.868;2023-03-14T05:52:49;96803.66;;;7.77;61.89
69911;BME280;63555;49.920;17.868;2023-03-14T05:57:49;96784.44;;;7.86;62.17
69911;BME280;63555;49.920;17.868;2023-03-14T06:02:50;96788.81;;;7.95;62.25
69911;BME280;63555;49.920;17.868;2023-03-14T06:07:50;96791.06;;;8.08;61.54
69911;BME280;63555;49.920;17.868;2023-03-14T06:12:50;96776.59;;;8.21;61.27
69911;BME280;63555;49.920;17.868;2023-03-14T06:17:51;96763.53;;;8.29;61.27
69911;BME280;63555;49.920;17.868;2023-03-14T06:22:53;96772.66;;;8.35;61.57
69911;BME280;63555;49.920;17.868;2023-03-14T06:27:53;96785.34;;;8.40;61.71
69911;BME280;63555;49.920;17.868;2023-03-14T06:32:54;96797.88;;;8.46;61.55
69911;BME280;63555;49.920;17.868;2023-03-14T06:37:55;96813.84;;;8.52;61.14
69911;BME280;63555;49.920;17.868;2023-03-14T06:42:55;96827.19;;;8.59;61.16
69911;BME280;63555;49.920;17.868;2023-03-14T06:47:56;96815.66;;;8.70;61.24
69911;BME280;63555;49.920;17.868;2023-03-14T06:52:56;96821.56;;;8.89;61.00
69911;BME280;63555;49.920;17.868;2023-03-14T06:57:56;96808.88;;;9.11;60.74
69911;BME280;63555;49.920;17.868;2023-03-14T07:02:57;96852.56;;;9.30;60.39
69911;BME280;63555;49.920;17.868;2023-03-14T07:07:57;96853.78;;;9.43;60.35
69911;BME280;63555;49.920;17.868;2023-03-14T07:12:58;96854.75;;;9.60;60.16
69911;BME280;63555;49.920;17.868;2023-03-14T07:17:58;96847.31;;;9.89;59.94
69911;BME280;63555;49.920;17.868;2023-03-14T07:22:58;96833.19;;;10.49;59.17
69911;BME280;63555;49.920;17.868;2023-03-14T07:28:03;96838.47;;;11.14;58.07
69911;BME280;63555;49.920;17.868;2023-03-14T07:33:03;96823.78;;;12.99;54.68
69911;BME280;63555;49.920;17.868;2023-03-14T07:38:03;96811.16;;;13.91;52.23
69911;BME280;63555;49.920;17.868;2023-03-14T07:43:04;96813.56;;;14.58;50.80
69911;BME280;63555;49.920;17.868;2023-03-14T07:48:04;96809.31;;;13.77;50.77
69911;BME280;63555;49.920;17.868;2023-03-14T07:53:05;96814.81;;;12.85;52.07
69911;BME280;63555;49.920;17.868;2023-03-14T07:58:05;96804.22;;;12.17;52.81
69911;BME280;63555;49.920;17.868;2023-03-14T08:03:06;96815.78;;;11.68;53.93
69911;BME280;63555;49.920;17.868;2023-03-14T08:08:06;96775.59;;;11.50;54.44
69911;BME280;63555;49.920;17.868;2023-03-14T08:13:07;96841.25;;;11.45;54.53
69911;BME280;63555;49.920;17.868;2023-03-14T08:18:07;96819.66;;;11.41;54.56
69911;BME280;63555;49.920;17.868;2023-03-14T08:23:08;96826.56;;;11.51;54.83
69911;BME280;63555;49.920;17.868;2023-03-14T08:28:08;96859.47;;;11.87;54.49
69911;BME280;63555;49.920;17.868;2023-03-14T08:33:09;96883.88;;;12.36;53.09
69911;BME280;63555;49.920;17.868;2023-03-14T08:38:09;96847.53;;;12.38;53.47
69911;BME280;63555;49.920;17.868;2023-03-14T08:43:09;96880.13;;;12.31;53.52
69911;BME280;63555;49.920;17.868;2023-03-14T08:48:10;96859.88;;;12.15;53.51
69911;BME280;63555;49.920;17.868;2023-03-14T08:53:10;96866.66;;;12.09;53.64
69911;BME280;63555;49.920;17.868;2023-03-14T08:58:10;96831.38;;;11.94;53.71
69911;BME280;63555;49.920;17.868;2023-03-14T09:03:11;96858.97;;;11.92;53.75
69911;BME280;63555;49.920;17.868;2023-03-14T09:08:11;96862.66;;;12.13;53.81
69911;BME280;63555;49.920;17.868;2023-03-14T09:13:11;96841.66;;;12.51;53.16
69911;BME280;63555;49.920;17.868;2023-03-14T09:18:12;96852.44;;;12.72;52.85
69911;BME280;63555;49.920;17.868;2023-03-14T09:23:13;96862.72;;;12.67;52.84
69911;BME280;63555;49.920;17.868;2023-03-14T09:28:14;96871.09;;;12.48;52.82
69911;BME280;63555;49.920;17.868;2023-03-14T09:33:15;96891.16;;;12.34;53.54
69911;BME280;63555;49.920;17.868;2023-03-14T09:38:15;96897.88;;;12.06;53.76
69911;BME280;63555;49.920;17.868;2023-03-14T09:43:16;96907.19;;;11.77;54.43
69911;BME280;63555;49.920;17.868;2023-03-14T09:48:22;96920.59;;;11.52;55.37
69911;BME280;63555;49.920;17.868;2023-03-14T09:53:27;96928.84;;;11.32;55.50
69911;BME280;63555;49.920;17.868;2023-03-14T09:58:29;96927.34;;;11.22;56.21
69911;BME280;63555;49.920;17.868;2023-03-14T10:03:34;96942.50;;;11.03;57.23
69911;BME280;63555;49.920;17.868;2023-03-14T10:08:35;96947.69;;;10.63;58.97
69911;BME280;63555;49.920;17.868;2023-03-14T10:13:47;96958.50;;;10.17;61.10
69911;BME280;63555;49.920;17.868;2023-03-14T10:18:47;96960.63;;;9.80;62.30
69911;BME280;63555;49.920;17.868;2023-03-14T10:23:48;96959.09;;;9.51;64.50
69911;BME280;63555;49.920;17.868;2023-03-14T10:28:54;96954.31;;;9.29;65.78
69911;BME280;63555;49.920;17.868;2023-03-14T10:34:03;96956.72;;;9.22;66.41
69911;BME280;63555;49.920;17.868;2023-03-14T10:44:24;96951.31;;;9.24;66.57
69911;BME280;63555;49.920;17.868;2023-03-14T10:49:34;96946.94;;;9.33;66.79
69911;BME280;63555;49.920;17.868;2023-03-14T10:54:35;96936.19;;;9.44;66.43
69911;BME280;63555;49.920;17.868;2023-03-14T10:59:37;96928.66;;;9.75;66.43
69911;BME280;63555;49.920;17.868;2023-03-14T11:05:13;96948.19;;;10.24;66.07
69911;BME280;63555;49.920;17.868;2023-03-14T11:10:29;96954.09;;;10.52;65.58
69911;BME280;63555;49.920;17.868;2023-03-14T11:21:28;96941.97;;;10.75;66.03
69911;BME280;63555;49.920;17.868;2023-03-14T11:26:45;96949.25;;;10.90;65.89
69911;BME280;63555;49.920;17.868;2023-03-14T11:31:47;96940.84;;;11.02;65.40
69911;BME280;63555;49.920;17.868;2023-03-14T11:41:57;96946.25;;;10.84;65.52
69911;BME280;63555;49.920;17.868;2023-03-14T11:47:14;96935.22;;;10.81;66.17
69911;BME280;63555;49.920;17.868;2023-03-14T11:52:35;96923.03;;;10.88;66.08
69911;BME280;63555;49.920;17.868;2023-03-14T11:57:39;96908.22;;;10.95;65.99
69911;BME280;63555;49.920;17.868;2023-03-14T12:13:13;96903.28;;;11.16;66.21
69911;BME280;63555;49.920;17.868;2023-03-14T12:23:27;96899.13;;;10.90;66.61
69911;BME280;63555;49.920;17.868;2023-03-14T12:28:31;96896.16;;;10.93;66.83
69911;BME280;63555;49.920;17.868;2023-03-14T12:33:33;96889.25;;;11.16;66.59
69911;BME280;63555;49.920;17.868;2023-03-14T12:38:52;96903.44;;;11.47;66.47
69911;BME280;63555;49.920;17.868;2023-03-14T12:43:56;96890.06;;;11.57;66.20
69911;BME280;63555;49.920;17.868;2023-03-14T12:49:05;96904.94;;;11.42;66.04
69911;BME280;63555;49.920;17.868;2023-03-14T12:59:57;96859.38;;;11.56;67.92
69911;BME280;63555;49.920;17.868;2023-03-14T13:15:19;96867.25;;;14.96;61.10
69911;BME280;63555;49.920;17.868;2023-03-14T13:25:33;96890.00;;;13.89;61.35
69911;BME280;63555;49.920;17.868;2023-03-14T13:30:42;96869.19;;;13.33;62.73
69911;BME280;63555;49.920;17.868;2023-03-14T13:35:49;96875.31;;;13.11;62.98
69911;BME280;63555;49.920;17.868;2023-03-14T13:40:56;96879.31;;;13.07;63.05
69911;BME280;63555;49.920;17.868;2023-03-14T13:46:25;96883.72;;;13.15;63.21
69911;BME280;63555;49.920;17.868;2023-03-14T13:51:26;96898.38;;;13.63;62.48
69911;BME280;63555;49.920;17.868;2023-03-14T13:56:32;96895.72;;;14.51;60.42
69911;BME280;63555;49.920;17.868;2023-03-14T14:01:35;96898.00;;;14.40;60.07
69911;BME280;63555;49.920;17.868;2023-03-14T14:06:38;96883.41;;;13.70;61.14
69911;BME280;63555;49.920;17.868;2023-03-14T14:11:51;96905.25;;;13.12;62.37
69911;BME280;63555;49.920;17.868;2023-03-14T14:16:54;96892.16;;;12.87;62.85
69911;BME280;63555;49.920;17.868;2023-03-14T14:21:56;96872.88;;;12.56;63.45
69911;BME280;63555;49.920;17.868;2023-03-14T14:27:09;96867.59;;;12.56;63.74
69911;BME280;63555;49.920;17.868;2023-03-14T14:32:13;96866.06;;;12.84;63.05
69911;BME280;63555;49.920;17.868;2023-03-14T14:37:19;96859.47;;;12.80;62.83
69911;BME280;63555;49.920;17.868;2023-03-14T14:42:29;96837.44;;;12.65;62.94
69911;BME280;63555;49.920;17.868;2023-03-14T14:47:30;96802.38;;;12.48;63.37
69911;BME280;63555;49.920;17.868;2023-03-14T14:52:40;96796.88;;;12.27;63.56
69911;BME280;63555;49.920;17.868;2023-03-14T14:57:49;96798.44;;;12.67;63.13
69911;BME280;63555;49.920;17.868;2023-03-14T15:02:59;96805.25;;;12.61;62.42
69911;BME280;63555;49.920;17.868;2023-03-14T15:07:59;96810.53;;;12.61;62.62
69911;BME280;63555;49.920;17.868;2023-03-14T15:13:00;96805.06;;;12.63;62.56
69911;BME280;63555;49.920;17.868;2023-03-14T15:18:00;96812.19;;;12.62;62.13
69911;BME280;63555;49.920;17.868;2023-03-14T15:23:01;96803.72;;;12.67;62.39
69911;BME280;63555;49.920;17.868;2023-03-14T15:28:01;96797.34;;;12.76;61.59
69911;BME280;63555;49.920;17.868;2023-03-14T15:33:02;96805.94;;;13.53;60.48
69911;BME280;63555;49.920;17.868;2023-03-14T15:38:02;96813.16;;;14.76;57.49
69911;BME280;63555;49.920;17.868;2023-03-14T15:43:03;96802.31;;;15.20;55.30
69911;BME280;63555;49.920;17.868;2023-03-14T15:48:04;96804.19;;;13.75;57.81
69911;BME280;63555;49.920;17.868;2023-03-14T15:53:04;96812.75;;;12.50;60.59
69911;BME280;63555;49.920;17.868;2023-03-14T15:58:04;96835.09;;;11.61;62.60
69911;BME280;63555;49.920;17.868;2023-03-14T16:03:05;96850.19;;;10.95;64.37
69911;BME280;63555;49.920;17.868;2023-03-14T16:08:06;96865.34;;;10.61;65.58
69911;BME280;63555;49.920;17.868;2023-03-14T16:13:06;96865.47;;;10.43;65.75
69911;BME280;63555;49.920;17.868;2023-03-14T16:18:06;96857.16;;;10.30;65.96
69911;BME280;63555;49.920;17.868;2023-03-14T16:23:07;96850.69;;;10.16;66.09
69911;BME280;63555;49.920;17.868;2023-03-14T16:28:07;96866.94;;;10.03;66.58
69911;BME280;63555;49.920;17.868;2023-03-14T16:33:08;96851.44;;;9.92;66.51
69911;BME280;63555;49.920;17.868;2023-03-14T16:38:09;96846.28;;;9.82;66.90
69911;BME280;63555;49.920;17.868;2023-03-14T16:43:09;96849.19;;;9.71;67.84
69911;BME280;63555;49.920;17.868;2023-03-14T16:48:10;96864.28;;;9.61;67.53
69911;BME280;63555;49.920;17.868;2023-03-14T16:53:11;96857.13;;;9.53;67.81
69911;BME280;63555;49.920;17.868;2023-03-14T16:58:12;96865.81;;;9.46;68.53
69911;BME280;63555;49.920;17.868;2023-03-14T17:03:13;96884.19;;;9.38;68.52
69911;BME280;63555;49.920;17.868;2023-03-14T17:08:15;96878.56;;;9.33;68.62
69911;BME280;63555;49.920;17.868;2023-03-14T17:13:15;96881.50;;;9.30;69.10
69911;BME280;63555;49.920;17.868;2023-03-14T17:18:16;96875.72;;;9.26;69.15
69911;BME280;63555;49.920;17.868;2023-03-14T17:23:16;96869.56;;;9.17;69.20
69911;BME280;63555;49.920;17.868;2023-03-14T17:28:18;96890.19;;;9.04;69.30
69911;BME280;63555;49.920;17.868;2023-03-14T17:33:18;96892.84;;;8.86;69.78
69911;BME280;63555;49.920;17.868;2023-03-14T17:38:18;96893.81;;;8.68;70.40
69911;BME280;63555;49.920;17.868;2023-03-14T17:43:19;96905.09;;;8.50;70.53
69911;BME280;63555;49.920;17.868;2023-03-14T17:48:19;96910.72;;;8.38;70.79
69911;BME280;63555;49.920;17.868;2023-03-14T17:53:19;96903.69;;;8.28;71.10
69911;BME280;63555;49.920;17.868;2023-03-14T17:58:20;96920.03;;;8.22;71.78
69911;BME280;63555;49.920;17.868;2023-03-14T18:03:20;96930.31;;;8.16;71.52
69911;BME280;63555;49.920;17.868;2023-03-14T18:08:21;96944.00;;;8.10;71.65
69911;BME280;63555;49.920;17.868;2023-03-14T18:13:22;96932.81;;;8.08;72.59
69911;BME280;63555;49.920;17.868;2023-03-14T18:18:22;96944.59;;;8.04;72.54
69911;BME280;63555;49.920;17.868;2023-03-14T18:23:22;96934.66;;;7.97;72.91
69911;BME280;63555;49.920;17.868;2023-03-14T18:28:23;96927.75;;;7.96;72.55
69911;BME280;63555;49.920;17.868;2023-03-14T18:33:23;96925.28;;;7.95;73.49
69911;BME280;63555;49.920;17.868;2023-03-14T18:38:23;96935.78;;;7.95;73.83
69911;BME280;63555;49.920;17.868;2023-03-14T18:43:24;96932.19;;;7.96;73.72
69911;BME280;63555;49.920;17.868;2023-03-14T18:48:24;96909.25;;;7.98;73.86
69911;BME280;63555;49.920;17.868;2023-03-14T18:53:25;96919.06;;;7.96;73.62
69911;BME280;63555;49.920;17.868;2023-03-14T18:58:32;96908.31;;;7.89;73.70
69911;BME280;63555;49.920;17.868;2023-03-14T19:03:34;96909.88;;;7.82;73.77
69911;BME280;63555;49.920;17.868;2023-03-14T19:08:37;96912.63;;;7.81;74.01
69911;BME280;63555;49.920;17.868;2023-03-14T19:13:39;96925.19;;;7.77;74.34
69911;BME280;63555;49.920;17.868;2023-03-14T19:18:40;96932.53;;;7.74;75.00
69911;BME280;63555;49.920;17.868;2023-03-14T19:23:42;96939.16;;;7.68;74.69
69911;BME280;63555;49.920;17.868;2023-03-14T19:28:45;96940.84;;;7.59;75.22
69911;BME280;63555;49.920;17.868;2023-03-14T19:33:46;96951.22;;;7.51;74.45
69911;BME280;63555;49.920;17.868;2023-03-14T19:38:46;96944.06;;;7.44;74.98
69911;BME280;63555;49.920;17.868;2023-03-14T19:43:47;96958.41;;;7.40;75.87
69911;BME280;63555;49.920;17.868;2023-03-14T19:48:48;96962.16;;;7.37;75.29
69911;BME280;63555;49.920;17.868;2023-03-14T19:53:49;96951.81;;;7.35;75.66
69911;BME280;63555;49.920;17.868;2023-03-14T19:58:50;96961.19;;;7.38;75.26
69911;BME280;63555;49.920;17.868;2023-03-14T20:03:53;96963.81;;;7.38;75.48
69911;BME280;63555;49.920;17.868;2023-03-14T20:08:53;96967.94;;;7.41;75.59
69911;BME280;63555;49.920;17.868;2023-03-14T20:13:53;96980.91;;;7.42;75.24
69911;BME280;63555;49.920;17.868;2023-03-14T20:18:54;96988.09;;;7.40;75.94
69911;BME280;63555;49.920;17.868;2023-03-14T20:23:54;96981.34;;;7.38;75.50
69911;BME280;63555;49.920;17.868;2023-03-14T20:28:55;96976.38;;;7.34;76.08
69911;BME280;63555;49.920;17.868;2023-03-14T20:33:56;96998.44;;;7.32;76.36
69911;BME280;63555;49.920;17.868;2023-03-14T20:38:56;97006.59;;;7.29;75.89
69911;BME280;63555;49.920;17.868;2023-03-14T20:43:56;97009.34;;;7.27;75.76
69911;BME280;63555;49.920;17.868;2023-03-14T20:48:57;97004.94;;;7.28;75.51
69911;BME280;63555;49.920;17.868;2023-03-14T20:53:57;97016.25;;;7.28;76.31
69911;BME280;63555;49.920;17.868;2023-03-14T20:58:58;97020.53;;;7.29;76.22
69911;BME280;63555;49.920;17.868;2023-03-14T21:03:58;97033.78;;;7.28;75.53
69911;BME280;63555;49.920;17.868;2023-03-14T21:08:59;97047.84;;;7.27;75.47
69911;BME280;63555;49.920;17.868;2023-03-14T21:14:04;97071.72;;;7.24;75.33
69911;BME280;63555;49.920;17.868;2023-03-14T21:19:04;97092.00;;;7.22;75.95
69911;BME280;63555;49.920;17.868;2023-03-14T21:24:05;97097.66;;;7.27;75.69
69911;BME280;63555;49.920;17.868;2023-03-14T21:29:05;97101.25;;;7.35;75.49
69911;BME280;63555;49.920;17.868;2023-03-14T21:34:05;97098.78;;;7.53;75.01
69911;BME280;63555;49.920;17.868;2023-03-14T21:39:06;97112.44;;;7.76;75.10
69911;BME280;63555;49.920;17.868;2023-03-14T21:44:06;97116.75;;;7.96;74.25
69911;BME280;63555;49.920;17.868;2023-03-14T21:49:07;97109.94;;;8.13;73.73
69911;BME280;63555;49.920;17.868;2023-03-14T21:54:07;97120.00;;;8.27;73.76
69911;BME280;63555;49.920;17.868;2023-03-14T21:59:10;97135.91;;;8.36;73.48
69911;BME280;63555;49.920;17.868;2023-03-14T22:04:11;97147.50;;;8.43;73.17
69911;BME280;63555;49.920;17.868;2023-03-14T22:09:11;97175.28;;;8.45;73.13
69911;BME280;63555;49.920;17.868;2023-03-14T22:14:11;97197.53;;;8.41;73.34
69911;BME280;63555;49.920;17.868;2023-03-14T22:19:12;97266.38;;;8.25;73.71
69911;BME280;63555;49.920;17.868;2023-03-14T22:24:13;97279.59;;;7.85;74.56
69911;BME280;63555;49.920;17.868;2023-03-14T22:29:13;97318.94;;;7.45;74.77
69911;BME280;63555;49.920;17.868;2023-03-14T22:34:13;97341.97;;;7.11;74.85
69911;BME280;63555;49.920;17.868;2023-03-14T22:39:14;97363.72;;;6.70;73.53
69911;BME280;63555;49.920;17.868;2023-03-14T22:44:16;97393.78;;;6.23;73.83
69911;BME280;63555;49.920;17.868;2023-03-14T22:49:16;97417.91;;;5.82;73.12
69911;BME280;63555;49.920;17.868;2023-03-14T22:54:17;97443.94;;;5.50;72.86
69911;BME280;63555;49.920;17.868;2023-03-14T22:59:17;97458.38;;;5.20;72.96
69911;BME280;63555;49.920;17.868;2023-03-14T23:04:17;97472.16;;;4.98;73.17
69911;BME280;63555;49.920;17.868;2023-03-14T23:09:18;97483.84;;;4.82;72.91
69911;BME280;63555;49.920;17.868;2023-03-14T23:14:18;97494.22;;;4.70;72.55
69911;BME280;63555;49.920;17.868;2023-03-14T23:19:22;97509.63;;;4.62;72.60
69911;BME280;63555;49.920;17.868;2023-03-14T23:24:24;97516.09;;;4.57;71.34
69911;BME280;63555;49.920;17.868;2023-03-14T23:29:25;97546.81;;;4.53;70.36
69911;BME280;63555;49.920;17.868;2023-03-14T23:34:25;97553.63;;;4.43;69.45
69911;BME280;63555;49.920;17.868;2023-03-14T23:39:25;97574.50;;;4.30;68.69
69911;BME280;63555;49.920;17.868;2023-03-14T23:44:26;97581.19;;;4.22;68.42
69911;BME280;63555;49.920;17.868;2023-03-14T23:49:26;97590.47;;;4.13;67.68
69911;BME280;63555;49.920;17.868;2023-03-14T23:54:27;97596.44;;;4.02;67.89
69911;BME280;63555;49.920;17.868;2023-03-14T23:59:27;97612.91;;;3.90;67.48
